createdAt,value
2022-07-28T00:02:26.828Z,95.30
2022-07-28T00:05:00.018Z,95.40
2022-07-28T00:07:30.362Z,95.80
2022-07-28T00:10:01.199Z,95.70
2022-07-28T00:12:31.619Z,95.70
2022-07-28T00:15:01.975Z,95.60
2022-07-28T00:17:32.308Z,95.60
2022-07-28T00:20:05.739Z,95.40
2022-07-28T00:22:43.709Z,95.40
2022-07-28T00:25:15.432Z,95.30
2022-07-28T00:27:45.740Z,95.40
2022-07-28T00:30:16.798Z,95.10
2022-07-28T00:32:47.149Z,95.60
2022-07-28T00:35:30.365Z,95.40
2022-07-28T00:38:01.628Z,95.30
2022-07-28T00:40:45.694Z,95.40
2022-07-28T00:43:16.004Z,95.30
2022-07-28T00:45:47.642Z,95.30
2022-07-28T00:48:18.026Z,95.60
2022-07-28T00:50:51.133Z,95.30
2022-07-28T00:53:21.627Z,95.00
2022-07-28T00:56:05.299Z,95.20
2022-07-28T00:58:37.465Z,95.10
2022-07-28T01:01:09.751Z,95.10
2022-07-28T01:03:44.081Z,95.00
2022-07-28T01:06:25.884Z,95.20
2022-07-28T01:09:05.002Z,95.00
2022-07-28T01:11:42.634Z,95.20
2022-07-28T01:14:33.999Z,95.10
2022-07-28T01:17:09.287Z,95.30
2022-07-28T01:19:46.545Z,95.30
2022-07-28T01:22:24.079Z,95.40
2022-07-28T01:25:03.715Z,95.40
2022-07-28T01:27:48.611Z,95.30
2022-07-28T01:30:46.261Z,95.40
2022-07-28T01:33:21.503Z,95.50
2022-07-28T01:35:57.787Z,95.60
2022-07-28T01:38:29.643Z,95.60
2022-07-28T01:41:01.308Z,95.70
2022-07-28T01:43:35.427Z,95.60
2022-07-28T01:46:09.643Z,95.90
2022-07-28T01:48:41.511Z,95.60
2022-07-28T01:51:13.261Z,95.70
2022-07-28T01:53:44.982Z,95.50
2022-07-28T01:56:16.678Z,95.50
2022-07-28T01:58:48.386Z,95.70
2022-07-28T02:01:22.458Z,95.60
2022-07-28T02:03:54.341Z,95.90
2022-07-28T02:06:26.314Z,95.90
2022-07-28T02:08:57.719Z,96.00
2022-07-28T02:11:45.165Z,95.90
2022-07-28T02:14:19.296Z,96.10
2022-07-28T02:16:59.027Z,96.20
2022-07-28T02:19:30.960Z,96.00
2022-07-28T02:22:01.423Z,96.20
2022-07-28T02:24:33.165Z,96.30
2022-07-28T02:27:08.306Z,96.30
2022-07-28T02:29:51.185Z,96.80
2022-07-28T02:32:32.201Z,96.60
2022-07-28T02:35:09.373Z,96.50
2022-07-28T02:37:42.492Z,96.50
2022-07-28T02:40:17.155Z,96.50
2022-07-28T02:42:50.835Z,96.50
2022-07-28T02:45:26.710Z,96.60
2022-07-28T02:48:04.796Z,96.70
2022-07-28T02:50:35.191Z,96.70
2022-07-28T02:53:14.932Z,96.80
2022-07-28T02:55:49.293Z,96.80
2022-07-28T02:58:21.814Z,96.80
2022-07-28T03:00:53.717Z,96.90
2022-07-28T03:03:27.611Z,96.90
2022-07-28T03:06:00.847Z,97.10
2022-07-28T03:08:31.650Z,97.10
2022-07-28T03:11:12.330Z,97.20
2022-07-28T03:13:43.580Z,97.30
2022-07-28T03:16:14.484Z,97.40
2022-07-28T03:18:47.559Z,97.30
2022-07-28T03:21:18.308Z,97.60
2022-07-28T03:23:51.063Z,97.60
2022-07-28T03:26:28.390Z,97.40
2022-07-28T03:29:03.881Z,97.70
2022-07-28T03:31:40.313Z,97.60
2022-07-28T03:34:13.742Z,97.80
2022-07-28T03:36:50.057Z,97.80
2022-07-28T03:39:21.399Z,97.90
2022-07-28T03:41:52.142Z,97.80
2022-07-28T03:44:28.662Z,97.60
2022-07-28T03:46:59.670Z,97.80
2022-07-28T03:49:32.893Z,97.80
2022-07-28T03:52:03.232Z,97.70
2022-07-28T03:54:33.574Z,97.70
2022-07-28T03:57:03.908Z,97.80
2022-07-28T03:59:34.245Z,98.10
2022-07-28T04:02:04.576Z,98.40
2022-07-28T04:04:40.226Z,98.40
2022-07-28T04:07:11.087Z,98.20
2022-07-28T04:09:43.689Z,98.30
2022-07-28T04:12:13.998Z,98.40
2022-07-28T04:14:44.745Z,98.30
2022-07-28T04:17:15.135Z,98.40
2022-07-28T04:19:48.191Z,98.50
2022-07-28T04:22:22.105Z,98.80
2022-07-28T04:24:52.442Z,98.60
2022-07-28T04:27:22.777Z,98.50
2022-07-28T04:29:53.519Z,98.10
2022-07-28T04:32:24.262Z,98.90
2022-07-28T04:34:57.260Z,98.60
2022-07-28T04:37:27.836Z,98.80
2022-07-28T04:40:02.946Z,98.50
2022-07-28T04:42:33.584Z,98.40
2022-07-28T04:45:04.601Z,98.70
2022-07-28T04:47:34.932Z,98.50
2022-07-28T04:50:09.139Z,98.80
2022-07-28T04:52:40.182Z,98.70
2022-07-28T04:55:11.672Z,98.40
2022-07-28T04:57:42.085Z,98.30
2022-07-28T05:00:15.137Z,98.30
2022-07-28T05:02:48.183Z,98.90
2022-07-28T05:05:23.474Z,98.70
2022-07-28T05:07:54.421Z,98.60
2022-07-28T05:10:24.884Z,98.30
2022-07-28T05:12:55.375Z,98.60
2022-07-28T05:15:26.032Z,98.50
2022-07-28T05:17:56.532Z,99.20
2022-07-28T05:20:29.613Z,98.50
2022-07-28T05:23:00.543Z,98.40
2022-07-28T05:25:30.878Z,98.50
2022-07-28T05:28:01.560Z,98.80
2022-07-28T05:30:32.600Z,98.60
2022-07-28T05:33:02.870Z,99.10
2022-07-28T05:35:35.815Z,98.70
2022-07-28T05:38:11.112Z,99.00
2022-07-28T05:40:41.628Z,99.30
2022-07-28T05:43:12.039Z,99.20
2022-07-28T05:45:42.473Z,99.10
2022-07-28T05:48:12.965Z,99.00
2022-07-28T05:50:46.113Z,99.40
2022-07-28T05:53:16.664Z,99.40
2022-07-28T05:56:00.706Z,99.00
2022-07-28T05:58:33.527Z,99.40
2022-07-28T06:01:04.597Z,99.40
2022-07-28T06:03:41.820Z,99.00
2022-07-28T06:06:17.033Z,99.30
2022-07-28T06:08:49.036Z,99.20
2022-07-28T06:11:22.758Z,99.30
2022-07-28T06:13:54.718Z,99.30
2022-07-28T06:16:25.735Z,99.10
2022-07-28T06:18:56.388Z,99.30
2022-07-28T06:21:30.349Z,99.50
2022-07-28T06:24:00.799Z,99.10
2022-07-28T06:26:31.055Z,99.30
2022-07-28T06:29:01.566Z,99.10
2022-07-28T06:31:32.030Z,99.10
2022-07-28T06:34:02.710Z,99.40
2022-07-28T06:36:37.723Z,99.40
2022-07-28T06:39:08.459Z,99.10
2022-07-28T06:41:41.652Z,99.40
2022-07-28T06:44:12.597Z,99.30
2022-07-28T06:46:43.148Z,99.30
2022-07-28T06:49:14.078Z,99.20
2022-07-28T06:51:47.378Z,99.30
2022-07-28T06:54:18.478Z,99.40
2022-07-28T06:56:49.438Z,99.00
2022-07-28T06:59:20.227Z,99.30
2022-07-28T07:01:50.671Z,99.00
2022-07-28T07:04:21.271Z,99.10
2022-07-28T07:06:54.232Z,99.10
2022-07-28T07:09:24.857Z,99.00
2022-07-28T07:11:55.221Z,99.10
2022-07-28T07:14:30.484Z,99.30
2022-07-28T07:17:00.760Z,99.30
2022-07-28T07:19:31.273Z,99.20
2022-07-28T07:22:04.199Z,99.10
2022-07-28T07:24:34.577Z,99.20
2022-07-28T07:27:04.908Z,98.90
2022-07-28T07:29:35.283Z,98.80
2022-07-28T07:32:10.380Z,98.90
2022-07-28T07:34:42.214Z,98.70
2022-07-28T07:37:17.673Z,98.50
2022-07-28T07:39:48.169Z,98.40
2022-07-28T07:42:18.445Z,98.00
2022-07-28T07:44:50.007Z,98.00
2022-07-28T07:47:20.969Z,98.10
2022-07-28T07:49:52.019Z,98.00
2022-07-28T07:52:25.035Z,98.00
2022-07-28T07:54:55.492Z,98.00
2022-07-28T07:57:25.825Z,98.00
2022-07-28T07:59:56.425Z,97.40
2022-07-28T08:02:26.922Z,97.80
2022-07-28T08:04:58.940Z,97.80
2022-07-28T08:07:31.979Z,97.70
2022-07-28T08:10:02.725Z,97.60
2022-07-28T08:12:33.122Z,97.80
2022-07-28T08:15:03.805Z,98.00
2022-07-28T08:17:34.199Z,97.60
2022-07-28T08:20:05.341Z,97.40
2022-07-28T08:22:49.497Z,97.80
2022-07-28T08:25:20.046Z,97.60
2022-07-28T08:27:51.063Z,97.50
2022-07-28T08:30:26.320Z,97.00
2022-07-28T08:33:00.572Z,97.30
2022-07-28T08:35:34.748Z,96.80
2022-07-28T08:38:11.487Z,96.90
2022-07-28T08:40:43.478Z,97.00
2022-07-28T08:43:26.364Z,97.10
2022-07-28T08:45:58.632Z,96.70
2022-07-28T08:48:32.994Z,96.80
2022-07-28T08:51:06.274Z,96.90
2022-07-28T08:53:40.739Z,96.60
2022-07-28T08:56:12.982Z,96.40
2022-07-28T08:58:43.323Z,96.80
2022-07-28T09:01:13.816Z,96.40
2022-07-28T09:03:45.833Z,96.50
2022-07-28T09:06:16.815Z,96.60
2022-07-28T09:08:49.824Z,96.20
2022-07-28T09:11:20.619Z,96.40
2022-07-28T09:13:54.017Z,96.00
2022-07-28T09:16:25.038Z,95.80
2022-07-28T09:18:55.318Z,95.90
2022-07-28T09:21:26.483Z,95.60
2022-07-28T09:24:00.806Z,95.70
2022-07-28T09:26:31.291Z,95.50
2022-07-28T09:29:07.717Z,96.00
2022-07-28T09:31:38.204Z,95.30
2022-07-28T09:34:09.855Z,95.50
2022-07-28T09:36:42.617Z,95.20
2022-07-28T09:39:30.446Z,95.80
2022-07-28T09:42:01.172Z,95.30
2022-07-28T09:44:33.431Z,95.30
2022-07-28T09:47:04.054Z,94.30
2022-07-28T09:49:52.366Z,94.80
2022-07-28T09:52:32.417Z,93.60
2022-07-28T09:55:07.054Z,93.40
2022-07-28T09:57:41.593Z,94.40
2022-07-28T10:00:31.325Z,93.10
2022-07-28T10:03:02.168Z,93.70
2022-07-28T10:05:43.672Z,92.20
2022-07-28T10:08:15.084Z,92.90
2022-07-28T10:11:02.387Z,92.60
2022-07-28T10:13:32.726Z,92.90
2022-07-28T10:16:16.336Z,92.50
2022-07-28T10:18:47.773Z,92.50
2022-07-28T10:21:20.681Z,92.30
2022-07-28T10:23:53.134Z,91.80
2022-07-28T10:26:31.144Z,92.00
2022-07-28T10:29:07.244Z,91.40
2022-07-28T10:31:43.459Z,91.30
2022-07-28T10:34:24.899Z,91.50
2022-07-28T10:36:57.875Z,91.20
2022-07-28T10:39:34.019Z,90.70
2022-07-28T10:42:08.124Z,91.40
2022-07-28T10:44:38.730Z,91.30
2022-07-28T10:47:18.548Z,91.00
2022-07-28T10:49:51.375Z,91.20
2022-07-28T10:55:20.546Z,91.50
2022-07-28T10:58:11.659Z,90.90
2022-07-28T11:01:05.233Z,90.90
2022-07-28T11:03:44.642Z,91.00
2022-07-28T11:06:29.833Z,91.10
2022-07-28T11:09:01.729Z,90.70
2022-07-28T11:11:50.159Z,90.30
2022-07-28T11:14:39.822Z,90.30
2022-07-28T11:17:24.390Z,90.30
2022-07-28T11:20:25.851Z,90.10
2022-07-28T11:22:55.382Z,89.40
2022-07-28T11:25:27.072Z,90.00
2022-07-28T11:28:04.793Z,89.70
2022-07-28T11:30:56.317Z,90.00
2022-07-28T11:33:29.354Z,90.10
2022-07-28T11:36:02.414Z,88.90
2022-07-28T11:38:32.812Z,89.70
2022-07-28T11:41:03.229Z,90.00
2022-07-28T11:43:41.216Z,89.70
2022-07-28T11:46:42.752Z,89.60
2022-07-28T11:49:28.112Z,89.40
2022-07-28T11:52:18.176Z,88.90
2022-07-28T11:54:55.175Z,89.20
2022-07-28T11:57:29.454Z,90.20
2022-07-28T12:00:04.618Z,90.00
2022-07-28T12:02:39.184Z,90.10
2022-07-28T12:05:13.736Z,90.20
2022-07-28T12:07:50.531Z,90.60
2022-07-28T12:13:29.611Z,90.10
2022-07-28T12:16:00.328Z,90.10
2022-07-28T12:18:33.524Z,89.60
2022-07-28T12:21:05.495Z,88.40
2022-07-28T12:23:45.839Z,88.70
2022-07-28T12:26:32.360Z,88.90
2022-07-28T12:29:08.475Z,87.10
2022-07-28T12:31:43.486Z,85.90
2022-07-28T12:34:17.612Z,86.70
2022-07-28T12:36:48.463Z,86.40
2022-07-28T12:39:22.895Z,87.80
2022-07-28T12:42:04.063Z,88.10
2022-07-28T12:44:41.832Z,87.50
2022-07-28T12:47:14.588Z,86.30
2022-07-28T12:49:56.331Z,86.60
2022-07-28T12:52:28.735Z,86.70
2022-07-28T12:54:59.325Z,86.80
2022-07-28T12:57:51.634Z,86.70
2022-07-28T13:00:24.952Z,87.20
2022-07-28T13:02:56.821Z,86.80
2022-07-28T13:05:50.141Z,86.70
2022-07-28T13:08:20.872Z,86.20
2022-07-28T13:10:56.950Z,86.10
2022-07-28T13:13:28.101Z,86.00
2022-07-28T13:16:14.414Z,84.90
2022-07-28T13:18:45.880Z,86.20
2022-07-28T13:21:18.933Z,85.00
2022-07-28T13:23:49.218Z,84.70
2022-07-28T13:26:19.534Z,85.70
2022-07-28T13:28:49.878Z,85.40
2022-07-28T13:31:20.409Z,85.20
2022-07-28T13:33:50.776Z,85.80
2022-07-28T13:36:24.147Z,83.10
2022-07-28T13:38:54.755Z,84.10
2022-07-28T13:41:25.137Z,84.50
2022-07-28T13:44:15.851Z,83.90
2022-07-28T13:46:50.089Z,83.70
2022-07-28T13:49:21.490Z,83.80
2022-07-28T13:51:54.870Z,83.50
2022-07-28T13:54:25.256Z,83.40
2022-07-28T13:56:56.319Z,82.70
2022-07-28T13:59:26.895Z,84.40
2022-07-28T14:01:58.227Z,83.40
2022-07-28T14:04:28.892Z,83.20
2022-07-28T14:07:01.936Z,83.00
2022-07-28T14:09:35.154Z,82.30
2022-07-28T14:12:10.820Z,82.30
2022-07-28T14:14:47.780Z,81.90
2022-07-28T14:20:15.063Z,82.10
2022-07-28T14:22:48.380Z,81.70
2022-07-28T14:25:19.570Z,83.10
2022-07-28T14:27:52.992Z,81.40
2022-07-28T14:30:26.069Z,81.20
2022-07-28T14:32:57.150Z,81.20
2022-07-28T14:35:27.876Z,82.00
2022-07-28T14:38:50.294Z,82.70
2022-07-28T14:40:51.245Z,81.00
2022-07-28T14:43:21.718Z,82.10
2022-07-28T14:46:20.738Z,81.70
2022-07-28T14:48:43.113Z,81.20
2022-07-28T14:51:14.409Z,81.30
2022-07-28T14:53:51.413Z,82.30
2022-07-28T14:56:22.564Z,81.10
2022-07-28T14:58:53.048Z,81.20
2022-07-28T15:01:23.663Z,82.70
2022-07-28T15:03:54.045Z,82.90
2022-07-28T15:06:24.792Z,82.40
2022-07-28T15:08:58.621Z,82.20
2022-07-28T15:11:29.504Z,81.70
2022-07-28T15:13:59.839Z,82.50
2022-07-28T15:16:30.315Z,82.10
2022-07-28T15:19:00.915Z,82.50
2022-07-28T15:21:36.169Z,82.50
2022-07-28T15:24:12.091Z,82.50
2022-07-28T15:26:43.378Z,81.80
2022-07-28T15:29:13.820Z,82.50
2022-07-28T15:31:45.335Z,83.30
2022-07-28T15:34:17.269Z,82.80
2022-07-28T15:36:48.383Z,82.30
2022-07-28T15:39:23.272Z,83.30
2022-07-28T15:41:53.824Z,83.40
2022-07-28T15:44:26.335Z,84.00
2022-07-28T15:46:56.954Z,82.80
2022-07-28T15:49:28.511Z,83.70
2022-07-28T15:52:02.832Z,83.70
2022-07-28T15:54:36.233Z,83.80
2022-07-28T15:57:06.602Z,83.10
2022-07-28T15:59:49.717Z,83.90
2022-07-28T16:02:22.047Z,83.00
2022-07-28T16:04:54.049Z,83.80
2022-07-28T16:07:28.812Z,83.50
2022-07-28T16:10:01.755Z,83.20
2022-07-28T16:12:33.724Z,83.90
2022-07-28T16:15:06.228Z,83.60
2022-07-28T16:17:37.569Z,83.80
2022-07-28T16:20:11.090Z,83.20
2022-07-28T16:22:41.480Z,83.20
2022-07-28T16:25:16.906Z,82.80
2022-07-28T16:27:47.481Z,83.00
2022-07-28T16:30:19.210Z,83.20
2022-07-28T16:32:50.796Z,82.60
2022-07-28T16:35:21.196Z,83.30
2022-07-28T16:37:52.453Z,83.40
2022-07-28T16:40:25.515Z,83.10
2022-07-28T16:42:55.885Z,83.50
2022-07-28T16:45:30.714Z,83.70
2022-07-28T16:48:03.825Z,83.60
2022-07-28T16:50:34.983Z,83.70
2022-07-28T16:53:11.629Z,83.50
2022-07-28T16:55:47.207Z,83.50
2022-07-28T16:58:22.407Z,83.20
2022-07-28T17:00:53.281Z,84.50
2022-07-28T17:03:23.636Z,82.80
2022-07-28T17:05:55.405Z,82.00
2022-07-28T17:08:25.822Z,82.40
2022-07-28T17:10:58.847Z,83.00
2022-07-28T17:13:29.242Z,82.90
2022-07-28T17:16:01.840Z,84.10
2022-07-28T17:18:33.581Z,82.30
2022-07-28T17:21:04.206Z,81.60
2022-07-28T17:23:34.720Z,81.90
2022-07-28T17:29:00.560Z,81.80
2022-07-28T17:31:31.619Z,83.10
2022-07-28T17:34:04.615Z,81.90
2022-07-28T17:36:35.691Z,82.30
2022-07-28T17:39:07.306Z,82.60
2022-07-28T17:41:40.273Z,82.70
2022-07-28T17:44:10.679Z,82.20
2022-07-28T17:46:41.492Z,81.70
2022-07-28T17:49:13.239Z,81.60
2022-07-28T17:51:44.301Z,81.40
2022-07-28T17:54:16.233Z,82.20
2022-07-28T17:56:50.008Z,81.70
2022-07-28T17:59:20.558Z,81.10
2022-07-28T18:01:51.110Z,81.20
2022-07-28T18:04:24.287Z,81.30
2022-07-28T18:06:54.598Z,81.60
2022-07-28T18:09:25.174Z,82.40
2022-07-28T18:11:58.924Z,81.10
2022-07-28T18:14:29.976Z,82.20
2022-07-28T18:17:00.844Z,82.00
2022-07-28T18:19:31.739Z,81.60
2022-07-28T18:22:02.280Z,82.30
2022-07-28T18:24:32.723Z,81.70
2022-07-28T18:27:07.682Z,81.80
2022-07-28T18:29:38.997Z,81.60
2022-07-28T18:32:12.336Z,82.00
2022-07-28T18:34:45.473Z,82.00
2022-07-28T18:37:15.809Z,82.20
2022-07-28T18:39:46.408Z,82.30
2022-07-28T18:42:19.693Z,82.80
2022-07-28T18:44:50.056Z,83.60
2022-07-28T18:47:20.656Z,83.20
2022-07-28T18:49:51.716Z,83.60
2022-07-28T18:52:22.575Z,84.20
2022-07-28T18:54:53.731Z,83.50
2022-07-28T18:57:26.757Z,83.20
2022-07-28T18:59:57.093Z,83.50
2022-07-28T19:02:27.596Z,83.30
2022-07-28T19:04:58.809Z,83.40
2022-07-28T19:07:29.251Z,83.60
2022-07-28T19:09:59.888Z,83.60
2022-07-28T19:12:35.170Z,84.60
2022-07-28T19:15:05.511Z,85.00
2022-07-28T19:17:35.817Z,85.00
2022-07-28T19:20:11.282Z,84.30
2022-07-28T19:22:42.315Z,84.20
2022-07-28T19:25:13.629Z,84.40
2022-07-28T19:27:47.200Z,84.40
2022-07-28T19:30:17.732Z,84.40
2022-07-28T19:32:48.054Z,84.50
2022-07-28T19:35:18.397Z,84.50
2022-07-28T19:37:49.070Z,85.00
2022-07-28T19:40:19.679Z,85.10
2022-07-28T19:42:53.640Z,86.00
2022-07-28T19:45:24.195Z,86.10
2022-07-28T19:47:54.805Z,86.00
2022-07-28T19:50:25.331Z,85.70
2022-07-28T19:52:56.540Z,86.30
2022-07-28T19:55:29.137Z,85.30
2022-07-28T19:58:04.488Z,85.50
2022-07-28T20:00:34.940Z,86.70
2022-07-28T20:03:06.421Z,86.90
2022-07-28T20:05:56.986Z,87.20
2022-07-28T20:08:27.454Z,86.30
2022-07-28T20:10:58.767Z,88.20
2022-07-28T20:13:31.708Z,88.40
2022-07-28T20:16:02.053Z,86.90
2022-07-28T20:18:32.486Z,86.10
2022-07-28T20:21:03.053Z,87.00
2022-07-28T20:23:33.593Z,86.60
2022-07-28T20:26:04.401Z,87.50
2022-07-28T20:28:37.400Z,88.20
2022-07-28T20:31:13.578Z,90.10
2022-07-28T20:33:47.079Z,90.20
2022-07-28T20:36:17.553Z,90.10
2022-07-28T20:38:48.096Z,90.30
2022-07-28T20:41:19.127Z,90.80
2022-07-28T20:44:18.199Z,90.30
2022-07-28T20:46:42.537Z,90.80
2022-07-28T20:49:12.960Z,91.10
2022-07-28T20:51:50.658Z,90.80
2022-07-28T20:54:24.279Z,91.20
2022-07-28T20:56:54.853Z,91.30
2022-07-28T20:59:28.234Z,91.40
2022-07-28T21:01:59.148Z,91.50
2022-07-28T21:04:29.494Z,91.50
2022-07-28T21:07:02.270Z,91.80
2022-07-28T21:09:34.516Z,92.30
2022-07-28T21:12:05.104Z,91.60
2022-07-28T21:14:38.024Z,92.00
2022-07-28T21:17:08.479Z,91.80
2022-07-28T21:19:38.965Z,92.20
2022-07-28T21:22:09.558Z,92.20
2022-07-28T21:24:40.766Z,91.70
2022-07-28T21:27:11.051Z,92.40
2022-07-28T21:29:42.214Z,92.00
2022-07-28T21:32:12.608Z,92.30
2022-07-28T21:34:42.881Z,92.60
2022-07-28T21:37:14.316Z,92.50
2022-07-28T21:39:44.595Z,92.50
2022-07-28T21:42:15.107Z,92.60
2022-07-28T21:44:48.000Z,92.20
2022-07-28T21:47:18.303Z,92.80
2022-07-28T21:49:48.594Z,92.80
2022-07-28T21:52:18.953Z,92.20
2022-07-28T21:54:49.419Z,93.00
2022-07-28T21:57:22.551Z,92.50
2022-07-28T21:59:58.763Z,92.60
2022-07-28T22:02:32.036Z,92.60
2022-07-28T22:05:06.628Z,92.90
2022-07-28T22:07:37.344Z,92.20
2022-07-28T22:10:08.524Z,92.60
2022-07-28T22:12:39.214Z,92.30
2022-07-28T22:15:13.192Z,91.90
2022-07-28T22:17:43.834Z,92.20
2022-07-28T22:20:15.403Z,92.90
2022-07-28T22:22:45.707Z,92.50
2022-07-28T22:25:16.000Z,92.80
2022-07-28T22:27:46.311Z,93.10
2022-07-28T22:30:19.304Z,93.40
2022-07-28T22:32:49.716Z,93.70
2022-07-28T22:35:20.141Z,93.60
2022-07-28T22:37:51.134Z,93.30
2022-07-28T22:40:21.807Z,93.60
2022-07-28T22:42:52.176Z,93.50
2022-07-28T22:45:50.067Z,93.50
2022-07-28T22:48:15.634Z,93.50
2022-07-28T22:50:46.016Z,92.90
2022-07-28T22:53:16.387Z,92.30
2022-07-28T22:58:31.065Z,92.90
2022-07-28T23:01:05.957Z,92.60
2022-07-28T23:03:38.359Z,92.60
2022-07-28T23:06:08.877Z,92.50
2022-07-28T23:08:39.367Z,92.60
2022-07-28T23:11:09.704Z,92.60
2022-07-28T23:13:41.843Z,93.30
2022-07-28T23:16:17.169Z,93.40
2022-07-28T23:18:48.473Z,93.40
2022-07-28T23:21:18.851Z,93.50
2022-07-28T23:23:49.368Z,94.10
2022-07-28T23:26:19.887Z,94.10
2022-07-28T23:28:50.382Z,94.50
2022-07-28T23:31:23.361Z,94.10
2022-07-28T23:33:57.162Z,94.30
2022-07-28T23:36:28.291Z,94.10
2022-07-28T23:38:59.696Z,94.40
2022-07-28T23:41:30.677Z,94.40
2022-07-28T23:44:04.280Z,94.40
2022-07-28T23:46:37.621Z,94.60
2022-07-28T23:49:08.745Z,94.40
2022-07-28T23:51:47.155Z,94.30
2022-07-28T23:54:19.755Z,94.30
2022-07-28T23:56:55.389Z,94.50
2022-07-28T23:59:26.054Z,94.50
